createdAt,value
2023-05-08T00:00:08.946Z,4.10
2023-05-08T00:01:10.535Z,4.45
2023-05-08T00:02:12.132Z,3.90
2023-05-08T00:03:13.947Z,6.00
2023-05-08T00:04:15.939Z,5.20
2023-05-08T00:05:17.807Z,3.88
2023-05-08T00:06:19.601Z,4.88
2023-05-08T00:07:21.177Z,4.55
2023-05-08T00:08:23.069Z,5.63
2023-05-08T00:09:24.604Z,4.38
2023-05-08T00:10:26.211Z,4.75
2023-05-08T00:11:27.788Z,4.20
2023-05-08T00:12:29.394Z,5.40
2023-05-08T00:13:31.070Z,4.53
2023-05-08T00:14:32.712Z,5.25
2023-05-08T00:15:36.271Z,4.07
2023-05-08T00:16:37.866Z,4.70
2023-05-08T00:17:39.502Z,5.82
2023-05-08T00:18:41.132Z,4.45
2023-05-08T00:19:42.692Z,6.72
2023-05-08T00:20:44.301Z,5.55
2023-05-08T00:21:45.872Z,5.03
2023-05-08T00:22:47.432Z,4.63
2023-05-08T00:23:49.005Z,5.68
2023-05-08T00:24:50.599Z,6.80
2023-05-08T00:25:52.156Z,4.50
2023-05-08T00:26:53.725Z,5.05
2023-05-08T00:27:55.676Z,4.55
2023-05-08T00:28:58.076Z,5.13
2023-05-08T00:29:59.586Z,6.07
2023-05-08T00:31:02.185Z,4.72
2023-05-08T00:32:03.822Z,4.78
2023-05-08T00:33:05.503Z,6.53
2023-05-08T00:34:07.125Z,5.95
2023-05-08T00:35:08.921Z,4.80
2023-05-08T00:36:10.501Z,6.88
2023-05-08T00:37:12.102Z,4.85
2023-05-08T00:38:13.836Z,5.55
2023-05-08T00:39:15.649Z,5.68
2023-05-08T00:40:17.253Z,5.72
2023-05-08T00:41:18.827Z,5.20
2023-05-08T00:42:20.391Z,4.57
2023-05-08T00:43:25.758Z,4.63
2023-05-08T00:44:27.415Z,6.30
2023-05-08T00:45:34.901Z,5.30
2023-05-08T00:46:37.173Z,5.88
2023-05-08T00:47:38.990Z,5.22
2023-05-08T00:48:40.852Z,6.60
2023-05-08T00:49:42.870Z,4.82
2023-05-08T00:50:44.572Z,5.50
2023-05-08T00:51:47.910Z,4.68
2023-05-08T00:52:50.236Z,5.57
2023-05-08T00:53:51.897Z,4.93
2023-05-08T00:54:54.048Z,4.82
2023-05-08T00:55:55.777Z,5.07
2023-05-08T00:56:57.570Z,5.07
2023-05-08T00:57:59.561Z,6.38
2023-05-08T00:59:01.552Z,4.95
2023-05-08T01:00:04.721Z,4.65
2023-05-08T01:01:06.598Z,5.22
2023-05-08T01:02:33.882Z,5.43
2023-05-08T01:03:36.457Z,6.07
2023-05-08T01:04:38.505Z,4.80
2023-05-08T01:05:41.399Z,6.32
2023-05-08T01:06:43.272Z,6.40
2023-05-08T01:07:48.507Z,5.72
2023-05-08T01:08:51.583Z,5.97
2023-05-08T01:09:53.693Z,5.53
2023-05-08T01:11:02.089Z,7.18
2023-05-08T01:12:21.604Z,6.47
2023-05-08T01:13:32.456Z,6.63
2023-05-08T01:15:06.594Z,6.05
2023-05-08T01:16:11.755Z,5.85
2023-05-08T01:17:42.965Z,6.38
2023-05-08T01:18:51.112Z,6.45
2023-05-08T01:20:10.369Z,6.55
2023-05-08T01:21:50.660Z,8.02
2023-05-08T01:23:07.652Z,6.47
2023-05-08T01:24:39.159Z,7.20
2023-05-08T01:26:20.557Z,6.18
2023-05-08T01:27:47.277Z,6.53
2023-05-08T01:29:31.118Z,7.35
2023-05-08T01:31:10.770Z,6.68
2023-05-08T01:32:18.550Z,7.30
2023-05-08T01:33:26.680Z,6.32
2023-05-08T01:35:50.079Z,7.25
2023-05-08T01:36:55.108Z,6.32
2023-05-08T01:38:10.271Z,6.60
2023-05-08T01:39:24.526Z,7.95
2023-05-08T01:41:07.738Z,7.45
2023-05-08T01:42:33.478Z,6.00
2023-05-08T01:44:11.134Z,9.30
2023-05-08T01:45:29.753Z,6.75
2023-05-08T01:46:33.449Z,7.13
2023-05-08T01:47:38.367Z,7.80
2023-05-08T01:48:51.518Z,9.05
2023-05-08T01:50:07.879Z,7.78
2023-05-08T01:51:18.790Z,6.97
2023-05-08T01:52:30.581Z,9.27
2023-05-08T01:53:38.576Z,8.93
2023-05-08T01:55:48.468Z,8.63
2023-05-08T01:56:54.202Z,7.75
2023-05-08T01:57:59.375Z,8.05
2023-05-08T01:59:02.816Z,8.82
2023-05-08T02:00:06.103Z,8.07
2023-05-08T02:01:16.669Z,8.45
2023-05-08T02:02:21.024Z,8.00
2023-05-08T02:03:23.511Z,9.13
2023-05-08T02:04:26.428Z,9.63
2023-05-08T02:05:29.082Z,9.60
2023-05-08T02:06:32.437Z,9.40
2023-05-08T02:07:39.049Z,9.82
2023-05-08T02:08:42.112Z,10.20
2023-05-08T02:09:47.453Z,9.05
2023-05-08T02:10:51.646Z,8.65
2023-05-08T02:11:54.809Z,12.23
2023-05-08T02:12:57.613Z,10.25
2023-05-08T02:14:02.006Z,8.07
2023-05-08T02:15:06.211Z,9.93
2023-05-08T02:16:09.742Z,10.98
2023-05-08T02:17:13.095Z,10.13
2023-05-08T02:18:16.146Z,10.15
2023-05-08T02:19:19.048Z,11.23
2023-05-08T02:20:21.688Z,9.63
2023-05-08T02:21:24.052Z,11.38
2023-05-08T02:23:28.376Z,10.32
2023-05-08T02:24:30.853Z,10.63
2023-05-08T02:26:35.558Z,12.98
2023-05-08T02:27:37.814Z,10.57
2023-05-08T02:28:40.689Z,10.77
2023-05-08T02:29:43.273Z,11.52
2023-05-08T02:30:46.640Z,11.35
2023-05-08T02:31:49.355Z,10.25
2023-05-08T02:32:58.273Z,12.25
2023-05-08T02:34:07.766Z,12.35
2023-05-08T02:35:15.649Z,10.65
2023-05-08T02:36:20.360Z,11.13
2023-05-08T02:37:23.394Z,10.48
2023-05-08T02:38:27.406Z,10.65
2023-05-08T02:39:31.232Z,12.35
2023-05-08T02:40:33.900Z,10.82
2023-05-08T02:41:36.692Z,12.38
2023-05-08T02:42:40.004Z,11.13
2023-05-08T02:43:42.292Z,11.00
2023-05-08T02:44:44.087Z,10.15
2023-05-08T02:45:50.471Z,9.63
2023-05-08T02:47:12.964Z,10.90
2023-05-08T02:48:34.064Z,10.63
2023-05-08T02:49:38.862Z,11.40
2023-05-08T02:50:53.317Z,10.15
2023-05-08T02:52:01.126Z,10.25
2023-05-08T02:53:07.140Z,9.70
2023-05-08T02:54:12.178Z,10.05
2023-05-08T02:55:20.108Z,10.18
2023-05-08T02:56:35.042Z,10.65
2023-05-08T02:57:42.626Z,9.95
2023-05-08T02:58:54.200Z,10.45
2023-05-08T03:00:37.788Z,11.55
2023-05-08T03:01:49.501Z,11.00
2023-05-08T03:03:08.724Z,11.48
2023-05-08T03:04:12.479Z,10.60
2023-05-08T03:05:17.861Z,10.65
2023-05-08T03:06:22.098Z,11.55
2023-05-08T03:07:26.192Z,9.10
2023-05-08T03:08:31.952Z,10.32
2023-05-08T03:09:46.355Z,10.40
2023-05-08T03:10:52.970Z,11.23
2023-05-08T03:12:03.862Z,11.95
2023-05-08T03:13:09.474Z,9.88
2023-05-08T03:14:13.145Z,9.05
2023-05-08T03:15:43.788Z,12.45
2023-05-08T03:16:46.925Z,10.60
2023-05-08T03:17:49.452Z,10.02
2023-05-08T03:18:55.120Z,9.93
2023-05-08T03:19:58.911Z,11.13
2023-05-08T03:21:01.536Z,11.00
2023-05-08T03:22:04.606Z,11.15
2023-05-08T03:23:08.886Z,8.90
2023-05-08T03:24:11.265Z,11.32
2023-05-08T03:25:15.668Z,11.00
2023-05-08T03:26:38.684Z,11.15
2023-05-08T03:27:42.619Z,10.45
2023-05-08T03:28:45.883Z,9.05
2023-05-08T03:29:53.835Z,10.73
2023-05-08T03:30:57.012Z,9.60
2023-05-08T03:32:00.793Z,10.77
2023-05-08T03:33:04.993Z,9.73
2023-05-08T03:34:09.352Z,8.90
2023-05-08T03:35:11.718Z,13.75
2023-05-08T03:36:14.392Z,11.25
2023-05-08T03:37:16.444Z,12.85
2023-05-08T03:38:19.936Z,13.45
2023-05-08T03:39:22.340Z,11.05
2023-05-08T03:40:24.475Z,11.38
2023-05-08T03:41:26.914Z,10.90
2023-05-08T03:42:31.700Z,11.02
2023-05-08T03:43:34.465Z,10.80
2023-05-08T03:44:36.671Z,12.10
2023-05-08T03:45:40.167Z,12.55
2023-05-08T03:46:44.831Z,12.27
2023-05-08T03:47:47.238Z,10.40
2023-05-08T03:48:50.207Z,11.93
2023-05-08T03:49:53.420Z,11.85
2023-05-08T03:50:55.811Z,11.38
2023-05-08T03:51:58.418Z,10.88
2023-05-08T03:53:00.541Z,11.13
2023-05-08T03:54:02.949Z,10.25
2023-05-08T03:55:08.792Z,10.98
2023-05-08T03:56:11.464Z,11.27
2023-05-08T03:57:13.629Z,12.25
2023-05-08T03:58:22.262Z,10.40
2023-05-08T04:00:54.182Z,12.18
2023-05-08T04:02:19.511Z,10.32
2023-05-08T04:03:28.178Z,11.65
2023-05-08T04:04:39.873Z,11.70
2023-05-08T04:06:01.974Z,10.70
2023-05-08T04:07:17.073Z,9.95
2023-05-08T04:08:25.547Z,10.80
2023-05-08T04:09:31.760Z,13.63
2023-05-08T04:10:44.746Z,11.60
2023-05-08T04:12:04.596Z,10.73
2023-05-08T04:13:14.359Z,12.27
2023-05-08T04:14:21.831Z,10.73
2023-05-08T04:15:28.400Z,10.60
2023-05-08T04:16:36.455Z,11.52
2023-05-08T04:17:46.793Z,11.35
2023-05-08T04:18:51.053Z,11.93
2023-05-08T04:19:59.672Z,13.45
2023-05-08T04:21:01.975Z,13.35
2023-05-08T04:22:07.767Z,13.88
2023-05-08T04:23:12.312Z,13.48
2023-05-08T04:24:16.288Z,11.68
2023-05-08T04:25:20.882Z,13.50
2023-05-08T04:26:23.449Z,11.68
2023-05-08T04:27:28.010Z,10.68
2023-05-08T04:28:30.208Z,12.55
2023-05-08T04:29:34.280Z,12.55
2023-05-08T04:30:38.304Z,12.63
2023-05-08T04:31:41.966Z,12.77
2023-05-08T04:32:46.399Z,12.25
2023-05-08T04:33:50.017Z,11.95
2023-05-08T04:34:53.573Z,12.35
2023-05-08T04:35:57.367Z,12.07
2023-05-08T04:36:59.766Z,10.30
2023-05-08T04:39:04.457Z,10.13
2023-05-08T04:40:09.031Z,12.25
2023-05-08T04:41:10.864Z,12.18
2023-05-08T04:42:15.300Z,11.30
2023-05-08T04:43:17.611Z,10.82
2023-05-08T04:44:20.993Z,9.98
2023-05-08T04:45:24.247Z,10.55
2023-05-08T04:46:30.376Z,11.20
2023-05-08T04:47:33.205Z,9.23
2023-05-08T04:48:36.520Z,9.93
2023-05-08T04:49:38.823Z,10.75
2023-05-08T04:51:43.292Z,9.95
2023-05-08T04:52:46.816Z,11.07
2023-05-08T04:53:49.227Z,11.38
2023-05-08T04:55:54.094Z,9.45
2023-05-08T04:56:56.312Z,11.75
2023-05-08T04:58:00.476Z,10.63
2023-05-08T04:59:03.234Z,9.98
2023-05-08T05:00:07.628Z,10.63
2023-05-08T05:01:13.750Z,9.23
2023-05-08T05:02:16.707Z,12.38
2023-05-08T05:03:18.570Z,10.63
2023-05-08T05:04:22.217Z,10.75
2023-05-08T05:05:26.600Z,9.75
2023-05-08T05:06:28.734Z,10.25
2023-05-08T05:07:32.395Z,11.07
2023-05-08T05:08:34.879Z,11.65
2023-05-08T05:09:37.269Z,10.68
2023-05-08T05:10:40.380Z,10.93
2023-05-08T05:11:43.050Z,11.00
2023-05-08T05:13:47.263Z,11.13
2023-05-08T05:14:49.365Z,12.10
2023-05-08T05:15:54.694Z,10.52
2023-05-08T05:16:58.126Z,10.70
2023-05-08T05:18:00.734Z,10.35
2023-05-08T05:19:03.192Z,11.73
2023-05-08T05:20:07.952Z,10.48
2023-05-08T05:21:11.809Z,10.45
2023-05-08T05:22:16.807Z,10.43
2023-05-08T05:23:19.345Z,9.90
2023-05-08T05:25:23.780Z,9.35
2023-05-08T05:26:25.690Z,11.18
2023-05-08T05:27:28.878Z,10.45
2023-05-08T05:28:31.159Z,8.90
2023-05-08T05:29:33.616Z,10.20
2023-05-08T05:30:35.844Z,12.85
2023-05-08T05:31:39.641Z,12.10
2023-05-08T05:32:43.239Z,12.40
2023-05-08T05:33:45.853Z,9.73
2023-05-08T05:34:48.427Z,10.57
2023-05-08T05:35:50.236Z,10.98
2023-05-08T05:36:53.342Z,11.23
2023-05-08T05:37:55.496Z,11.38
2023-05-08T05:38:57.554Z,10.13
2023-05-08T05:39:59.415Z,10.57
2023-05-08T05:41:01.580Z,10.23
2023-05-08T05:42:04.170Z,12.93
2023-05-08T05:43:06.597Z,10.30
2023-05-08T05:45:10.649Z,11.30
2023-05-08T05:46:13.497Z,9.07
2023-05-08T05:47:16.404Z,10.30
2023-05-08T05:48:18.682Z,10.32
2023-05-08T05:49:21.196Z,9.52
2023-05-08T05:50:23.953Z,10.32
2023-05-08T05:51:27.711Z,11.05
2023-05-08T05:52:30.074Z,11.68
2023-05-08T05:53:32.122Z,11.43
2023-05-08T05:54:34.119Z,10.63
2023-05-08T05:55:36.518Z,12.13
2023-05-08T05:56:41.281Z,10.65
2023-05-08T05:57:43.529Z,11.70
2023-05-08T05:58:46.698Z,11.95
2023-05-08T05:59:49.040Z,10.85
2023-05-08T06:00:52.375Z,11.07
2023-05-08T06:01:55.134Z,9.80
2023-05-08T06:02:57.864Z,10.75
2023-05-08T06:04:00.017Z,10.32
2023-05-08T06:05:01.817Z,11.07
2023-05-08T06:06:05.436Z,11.38
2023-05-08T06:07:07.179Z,10.13
2023-05-08T06:08:10.808Z,13.57
2023-05-08T06:09:12.598Z,11.52
2023-05-08T06:10:14.961Z,13.90
2023-05-08T06:11:17.915Z,10.43
2023-05-08T06:12:20.985Z,11.70
2023-05-08T06:13:22.867Z,10.93
2023-05-08T06:14:26.161Z,9.82
2023-05-08T06:15:28.275Z,11.13
2023-05-08T06:16:30.782Z,10.88
2023-05-08T06:17:32.932Z,10.02
2023-05-08T06:18:35.318Z,10.10
2023-05-08T06:19:37.036Z,10.77
2023-05-08T06:20:39.224Z,11.15
2023-05-08T06:21:41.983Z,10.32
2023-05-08T06:23:47.135Z,10.40
2023-05-08T06:24:50.065Z,11.73
2023-05-08T06:25:52.327Z,11.38
2023-05-08T06:26:54.403Z,10.80
2023-05-08T06:27:59.339Z,10.20
2023-05-08T06:29:01.881Z,11.60
2023-05-08T06:30:04.839Z,10.45
2023-05-08T06:31:06.639Z,10.30
2023-05-08T06:32:09.224Z,10.13
2023-05-08T06:33:11.675Z,9.27
2023-05-08T06:34:14.266Z,9.57
2023-05-08T06:35:18.704Z,9.15
2023-05-08T06:36:20.574Z,14.13
2023-05-08T06:37:22.917Z,9.13
2023-05-08T06:38:25.043Z,10.13
2023-05-08T06:39:27.426Z,9.88
2023-05-08T06:41:31.996Z,8.85
2023-05-08T06:42:35.131Z,8.45
2023-05-08T06:43:37.624Z,11.50
2023-05-08T06:44:40.952Z,11.00
2023-05-08T06:45:46.110Z,8.90
2023-05-08T06:46:48.405Z,11.68
2023-05-08T06:47:51.644Z,10.50
2023-05-08T06:48:53.768Z,10.05
2023-05-08T06:49:56.475Z,10.63
2023-05-08T06:50:59.125Z,9.57
2023-05-08T06:52:01.617Z,12.35
2023-05-08T06:53:04.529Z,10.80
2023-05-08T06:54:09.101Z,9.63
2023-05-08T06:55:10.934Z,10.98
2023-05-08T06:56:13.079Z,10.27
2023-05-08T06:57:16.275Z,9.63
2023-05-08T06:58:18.012Z,11.15
2023-05-08T06:59:21.309Z,10.13
2023-05-08T07:00:24.331Z,10.82
2023-05-08T07:01:27.652Z,12.27
2023-05-08T07:02:29.907Z,10.73
2023-05-08T07:03:32.025Z,10.98
2023-05-08T07:04:34.571Z,9.30
2023-05-08T07:05:36.743Z,10.32
2023-05-08T07:06:38.826Z,11.38
2023-05-08T07:07:43.098Z,10.10
2023-05-08T07:08:46.016Z,9.50
2023-05-08T07:09:48.135Z,9.77
2023-05-08T07:10:49.956Z,9.90
2023-05-08T07:11:51.699Z,10.63
2023-05-08T07:12:53.947Z,9.73
2023-05-08T07:13:56.505Z,9.63
2023-05-08T07:14:59.678Z,9.55
2023-05-08T07:16:09.063Z,10.25
2023-05-08T07:17:11.284Z,10.18
2023-05-08T07:18:13.159Z,9.38
2023-05-08T07:19:15.564Z,10.95
2023-05-08T07:20:17.764Z,10.70
2023-05-08T07:21:20.820Z,11.68
2023-05-08T07:22:23.073Z,12.35
2023-05-08T07:23:28.743Z,10.63
2023-05-08T07:24:31.069Z,10.80
2023-05-08T07:26:35.341Z,10.38
2023-05-08T07:27:37.439Z,10.40
2023-05-08T07:28:39.533Z,10.25
2023-05-08T07:29:42.839Z,10.13
2023-05-08T07:30:44.801Z,10.20
2023-05-08T07:31:48.445Z,10.63
2023-05-08T07:32:50.649Z,12.95
2023-05-08T07:33:52.636Z,10.60
2023-05-08T07:34:54.630Z,9.13
2023-05-08T07:35:56.738Z,10.15
2023-05-08T07:37:00.902Z,9.75
2023-05-08T07:38:02.976Z,10.90
2023-05-08T07:39:05.016Z,11.32
2023-05-08T07:40:07.405Z,13.13
2023-05-08T07:42:12.943Z,11.02
2023-05-08T07:43:15.482Z,11.73
2023-05-08T07:44:17.673Z,11.70
2023-05-08T07:45:19.397Z,11.52
2023-05-08T07:46:21.839Z,11.57
2023-05-08T07:48:26.684Z,11.00
2023-05-08T07:49:28.894Z,10.98
2023-05-08T07:50:31.625Z,11.02
2023-05-08T07:51:33.373Z,12.23
2023-05-08T07:52:35.061Z,12.65
2023-05-08T07:53:37.149Z,10.55
2023-05-08T07:54:39.285Z,12.70
2023-05-08T07:55:41.151Z,11.60
2023-05-08T07:56:43.293Z,10.55
2023-05-08T07:57:46.266Z,11.38
2023-05-08T07:58:48.233Z,11.43
2023-05-08T07:59:50.933Z,13.13
2023-05-08T08:00:53.159Z,11.80
2023-05-08T08:01:54.963Z,11.38
2023-05-08T08:02:57.962Z,13.15
2023-05-08T08:04:00.914Z,11.10
2023-05-08T08:05:03.050Z,11.60
2023-05-08T08:06:04.911Z,12.50
2023-05-08T08:07:08.993Z,10.85
2023-05-08T08:08:11.686Z,10.75
2023-05-08T08:09:13.785Z,9.55
2023-05-08T08:10:16.343Z,11.85
2023-05-08T08:11:18.183Z,11.00
2023-05-08T08:12:20.933Z,12.40
2023-05-08T08:13:22.815Z,10.85
2023-05-08T08:14:25.081Z,11.90
2023-05-08T08:15:28.633Z,11.13
2023-05-08T08:16:32.974Z,11.05
2023-05-08T08:17:35.245Z,10.95
2023-05-08T08:18:37.479Z,11.43
2023-05-08T08:19:39.383Z,10.27
2023-05-08T08:20:41.525Z,11.93
2023-05-08T08:21:44.601Z,11.63
2023-05-08T08:22:47.191Z,11.93
2023-05-08T08:23:49.034Z,10.20
2023-05-08T08:24:52.472Z,10.65
2023-05-08T08:25:57.099Z,10.43
2023-05-08T08:26:59.029Z,11.00
2023-05-08T08:28:01.074Z,10.85
2023-05-08T08:29:03.727Z,11.57
2023-05-08T08:30:16.951Z,10.70
2023-05-08T08:31:20.339Z,10.75
2023-05-08T08:32:22.237Z,8.82
2023-05-08T08:33:24.099Z,9.88
2023-05-08T08:34:26.170Z,10.55
2023-05-08T08:35:30.802Z,11.07
2023-05-08T08:36:32.833Z,9.88
2023-05-08T08:37:34.587Z,10.10
2023-05-08T08:38:36.898Z,9.75
2023-05-08T08:39:38.762Z,10.23
2023-05-08T08:40:42.488Z,9.23
2023-05-08T08:41:46.909Z,11.50
2023-05-08T08:42:49.048Z,10.23
2023-05-08T08:43:51.975Z,10.18
2023-05-08T08:44:54.220Z,9.90
2023-05-08T08:45:57.326Z,10.18
2023-05-08T08:47:00.908Z,9.57
2023-05-08T08:48:03.536Z,10.02
2023-05-08T08:49:07.031Z,11.70
2023-05-08T08:50:12.721Z,9.80
2023-05-08T08:51:25.157Z,10.60
2023-05-08T08:52:32.125Z,10.75
2023-05-08T08:53:39.032Z,11.23
2023-05-08T08:54:42.181Z,11.10
2023-05-08T08:55:46.751Z,9.35
2023-05-08T08:56:50.582Z,10.68
2023-05-08T08:58:03.834Z,10.63
2023-05-08T08:59:06.652Z,10.98
2023-05-08T09:00:09.732Z,11.10
2023-05-08T09:01:15.972Z,10.85
2023-05-08T09:02:19.925Z,10.55
2023-05-08T09:03:22.487Z,10.95
2023-05-08T09:04:29.959Z,11.93
2023-05-08T09:05:33.101Z,10.00
2023-05-08T09:06:37.075Z,11.43
2023-05-08T09:07:39.219Z,12.93
2023-05-08T09:08:43.282Z,18.67
2023-05-08T09:09:46.156Z,11.68
2023-05-08T09:10:48.532Z,13.35
2023-05-08T09:12:53.122Z,15.77
2023-05-08T09:13:55.781Z,12.75
2023-05-08T09:14:57.877Z,17.63
2023-05-08T09:16:00.613Z,12.45
2023-05-08T09:17:02.980Z,11.18
2023-05-08T09:18:05.430Z,10.20
2023-05-08T09:19:07.713Z,10.85
2023-05-08T09:20:10.489Z,11.15
2023-05-08T09:21:12.709Z,11.52
2023-05-08T09:22:14.798Z,9.90
2023-05-08T09:23:18.404Z,10.57
2023-05-08T09:24:21.166Z,10.93
2023-05-08T09:25:23.673Z,11.98
2023-05-08T09:26:28.753Z,11.20
2023-05-08T09:27:33.343Z,16.17
2023-05-08T09:28:35.844Z,10.80
2023-05-08T09:29:39.014Z,11.77
2023-05-08T09:30:54.229Z,10.52
2023-05-08T09:31:57.059Z,10.32
2023-05-08T09:33:02.279Z,10.18
2023-05-08T09:34:04.536Z,11.02
2023-05-08T09:35:07.775Z,9.68
2023-05-08T09:36:25.047Z,12.23
2023-05-08T09:37:27.972Z,20.05
2023-05-08T09:38:36.026Z,10.90
2023-05-08T09:39:41.804Z,11.93
2023-05-08T09:40:43.961Z,12.10
2023-05-08T09:42:06.721Z,11.07
2023-05-08T09:43:14.932Z,9.57
2023-05-08T09:44:17.588Z,11.07
2023-05-08T09:45:31.199Z,10.52
2023-05-08T09:46:34.681Z,12.02
2023-05-08T09:47:39.888Z,11.73
2023-05-08T09:48:42.169Z,12.30
2023-05-08T09:50:10.599Z,13.35
2023-05-08T09:51:12.936Z,13.93
2023-05-08T09:52:16.569Z,10.68
2023-05-08T09:53:18.862Z,12.10
2023-05-08T09:54:21.872Z,9.35
2023-05-08T09:55:24.028Z,10.27
2023-05-08T09:56:40.128Z,19.58
2023-05-08T09:57:53.938Z,12.30
2023-05-08T09:58:55.967Z,11.60
2023-05-08T10:00:28.127Z,14.18
2023-05-08T10:01:31.177Z,10.02
2023-05-08T10:02:35.174Z,10.70
2023-05-08T10:03:49.531Z,10.48
2023-05-08T10:04:51.294Z,10.95
2023-05-08T10:05:52.911Z,9.65
2023-05-08T10:06:58.660Z,10.52
2023-05-08T10:08:20.401Z,10.88
2023-05-08T10:09:22.018Z,10.40
2023-05-08T10:10:28.690Z,10.75
2023-05-08T10:11:30.430Z,9.45
2023-05-08T10:12:33.118Z,11.70
2023-05-08T10:13:34.686Z,10.82
2023-05-08T10:14:36.271Z,11.18
2023-05-08T10:15:38.854Z,11.55
2023-05-08T10:16:44.862Z,10.60
2023-05-08T10:18:05.035Z,11.60
2023-05-08T10:19:12.704Z,9.98
2023-05-08T10:20:15.748Z,10.45
2023-05-08T10:21:17.859Z,11.73
2023-05-08T10:22:20.890Z,10.23
2023-05-08T10:23:22.681Z,11.70
2023-05-08T10:24:29.365Z,10.98
2023-05-08T10:25:33.697Z,12.25
2023-05-08T10:26:38.105Z,9.23
2023-05-08T10:27:44.295Z,11.07
2023-05-08T10:28:54.967Z,11.68
2023-05-08T10:30:01.274Z,10.45
2023-05-08T10:31:05.502Z,12.10
2023-05-08T10:32:09.794Z,12.45
2023-05-08T10:33:15.356Z,10.60
2023-05-08T10:34:19.658Z,12.98
2023-05-08T10:35:22.199Z,11.75
2023-05-08T10:36:23.969Z,10.68
2023-05-08T10:37:25.821Z,11.27
2023-05-08T10:38:27.909Z,11.27
2023-05-08T10:39:30.723Z,12.75
2023-05-08T10:40:32.356Z,10.65
2023-05-08T10:41:34.230Z,12.07
2023-05-08T10:42:36.409Z,11.98
2023-05-08T10:43:42.221Z,12.02
2023-05-08T10:44:44.241Z,11.35
2023-05-08T10:45:46.375Z,10.25
2023-05-08T10:47:09.885Z,10.32
2023-05-08T10:48:30.305Z,11.10
2023-05-08T10:49:38.694Z,12.63
2023-05-08T10:51:09.548Z,11.27
2023-05-08T10:52:16.973Z,11.05
2023-05-08T10:53:40.911Z,12.60
2023-05-08T10:54:52.050Z,13.05
2023-05-08T10:55:55.459Z,11.48
2023-05-08T10:57:09.033Z,12.05
2023-05-08T10:58:30.610Z,12.15
2023-05-08T10:59:35.828Z,11.65
2023-05-08T11:01:09.417Z,11.50
2023-05-08T11:02:11.200Z,10.85
2023-05-08T11:03:23.581Z,10.13
2023-05-08T11:04:31.992Z,11.20
2023-05-08T11:05:45.543Z,14.10
2023-05-08T11:06:49.304Z,11.15
2023-05-08T11:07:58.388Z,10.90
2023-05-08T11:09:00.786Z,12.18
2023-05-08T11:10:07.940Z,11.98
2023-05-08T11:11:16.266Z,15.60
2023-05-08T11:12:20.846Z,11.00
2023-05-08T11:13:36.606Z,10.82
2023-05-08T11:14:39.884Z,12.70
2023-05-08T11:15:42.316Z,13.25
2023-05-08T11:17:02.055Z,10.52
2023-05-08T11:18:04.948Z,14.32
2023-05-08T11:19:17.184Z,11.57
2023-05-08T11:20:23.590Z,12.05
2023-05-08T11:21:25.330Z,14.27
2023-05-08T11:22:28.822Z,12.88
2023-05-08T11:23:32.004Z,12.85
2023-05-08T11:24:37.380Z,12.35
2023-05-08T11:25:43.806Z,12.77
2023-05-08T11:26:48.963Z,12.02
2023-05-08T11:27:50.656Z,13.23
2023-05-08T11:28:57.251Z,11.98
2023-05-08T11:30:20.861Z,13.77
2023-05-08T11:31:22.988Z,14.00
2023-05-08T11:33:03.150Z,12.98
2023-05-08T11:34:04.815Z,12.40
2023-05-08T11:35:11.203Z,14.23
2023-05-08T11:36:15.677Z,13.43
2023-05-08T11:37:17.167Z,13.00
2023-05-08T11:38:26.132Z,13.45
2023-05-08T11:39:27.777Z,12.32
2023-05-08T11:41:00.047Z,12.05
2023-05-08T11:42:29.450Z,13.35
2023-05-08T11:43:34.034Z,12.23
2023-05-08T11:44:36.335Z,16.35
2023-05-08T11:45:40.466Z,12.25
2023-05-08T11:46:43.343Z,14.60
2023-05-08T11:47:45.991Z,15.65
2023-05-08T11:48:47.854Z,14.32
2023-05-08T11:49:49.454Z,14.48
2023-05-08T11:50:51.413Z,12.68
2023-05-08T11:51:58.147Z,14.75
2023-05-08T11:52:59.800Z,15.63
2023-05-08T11:54:02.343Z,13.80
2023-05-08T11:55:11.927Z,14.18
2023-05-08T11:56:13.682Z,13.52
2023-05-08T11:57:17.460Z,15.15
2023-05-08T11:58:19.202Z,13.88
2023-05-08T11:59:21.289Z,13.38
2023-05-08T12:00:23.163Z,15.57
2023-05-08T12:01:24.761Z,13.77
2023-05-08T12:02:40.701Z,15.38
2023-05-08T12:03:42.485Z,14.95
2023-05-08T12:04:45.756Z,12.75
2023-05-08T12:05:48.674Z,14.73
2023-05-08T12:06:51.544Z,15.23
2023-05-08T12:07:53.166Z,13.65
2023-05-08T12:08:54.714Z,15.10
2023-05-08T12:09:56.281Z,13.57
2023-05-08T12:10:58.180Z,14.25
2023-05-08T12:11:59.948Z,14.10
2023-05-08T12:13:01.615Z,15.82
2023-05-08T12:14:03.354Z,16.25
2023-05-08T12:15:23.164Z,15.43
2023-05-08T12:16:25.938Z,14.68
2023-05-08T12:17:27.619Z,16.08
2023-05-08T12:18:30.810Z,17.60
2023-05-08T12:19:32.440Z,15.57
2023-05-08T12:20:34.077Z,15.23
2023-05-08T12:21:35.933Z,15.32
2023-05-08T12:22:39.087Z,14.90
2023-05-08T12:23:40.662Z,14.85
2023-05-08T12:24:42.235Z,14.88
2023-05-08T12:25:43.789Z,14.40
2023-05-08T12:26:46.378Z,15.32
2023-05-08T12:27:48.091Z,14.82
2023-05-08T12:28:55.748Z,14.35
2023-05-08T12:29:57.985Z,14.18
2023-05-08T12:30:59.844Z,13.93
2023-05-08T12:32:01.453Z,14.70
2023-05-08T12:33:04.677Z,14.15
2023-05-08T12:34:06.626Z,14.05
2023-05-08T12:35:09.407Z,13.85
2023-05-08T12:36:11.062Z,14.38
2023-05-08T12:37:23.473Z,16.70
2023-05-08T12:38:26.617Z,14.43
2023-05-08T12:39:28.185Z,14.90
2023-05-08T12:40:32.183Z,14.07
2023-05-08T12:41:33.749Z,13.02
2023-05-08T12:42:51.194Z,14.00
2023-05-08T12:43:52.775Z,14.13
2023-05-08T12:44:54.376Z,15.25
2023-05-08T12:45:56.076Z,13.73
2023-05-08T12:46:58.170Z,15.32
2023-05-08T12:48:01.770Z,11.88
2023-05-08T12:49:07.196Z,14.75
2023-05-08T12:50:10.199Z,14.52
2023-05-08T12:51:11.920Z,13.90
2023-05-08T12:52:13.968Z,12.57
2023-05-08T12:53:20.328Z,12.95
2023-05-08T12:54:32.171Z,14.23
2023-05-08T12:55:35.686Z,13.70
2023-05-08T12:56:43.479Z,15.40
2023-05-08T12:57:45.073Z,14.20
2023-05-08T12:58:46.645Z,11.50
2023-05-08T12:59:48.993Z,12.52
2023-05-08T13:01:55.784Z,12.90
2023-05-08T13:02:57.506Z,13.23
2023-05-08T13:04:02.656Z,13.15
2023-05-08T13:05:05.823Z,12.50
2023-05-08T13:06:07.611Z,12.45
2023-05-08T13:07:09.319Z,12.02
2023-05-08T13:08:11.182Z,12.35
2023-05-08T13:09:18.274Z,11.25
2023-05-08T13:10:23.018Z,10.75
2023-05-08T13:11:33.165Z,10.68
2023-05-08T13:12:34.853Z,12.80
2023-05-08T13:13:37.066Z,11.18
2023-05-08T13:14:39.372Z,9.52
2023-05-08T13:16:46.352Z,10.88
2023-05-08T13:17:47.961Z,11.50
2023-05-08T13:18:49.567Z,10.95
2023-05-08T13:19:51.154Z,11.52
2023-05-08T13:20:52.798Z,12.02
2023-05-08T13:21:54.429Z,9.95
2023-05-08T13:22:56.032Z,11.00
2023-05-08T13:23:57.699Z,12.32
2023-05-08T13:24:59.327Z,10.82
2023-05-08T13:26:00.990Z,11.57
2023-05-08T13:27:03.108Z,12.43
2023-05-08T13:28:05.857Z,10.95
2023-05-08T13:29:07.440Z,12.70
2023-05-08T13:30:09.500Z,13.30
2023-05-08T13:31:11.157Z,13.18
2023-05-08T13:32:12.763Z,12.80
2023-05-08T13:33:14.412Z,13.07
2023-05-08T13:34:16.042Z,11.85
2023-05-08T13:35:18.678Z,9.52
2023-05-08T13:36:20.939Z,11.57
2023-05-08T13:37:22.610Z,11.40
2023-05-08T13:38:24.268Z,12.07
2023-05-08T13:39:25.851Z,11.85
2023-05-08T13:40:27.832Z,11.38
2023-05-08T13:41:29.410Z,10.52
2023-05-08T13:42:30.996Z,11.73
2023-05-08T13:43:32.549Z,11.45
2023-05-08T13:44:34.112Z,10.40
2023-05-08T13:45:35.761Z,9.68
2023-05-08T13:46:37.446Z,9.82
2023-05-08T13:47:39.163Z,8.80
2023-05-08T13:48:40.784Z,8.95
2023-05-08T13:49:42.384Z,10.95
2023-05-08T13:50:43.981Z,10.95
2023-05-08T13:51:47.187Z,9.18
2023-05-08T13:52:53.221Z,9.23
2023-05-08T13:53:56.397Z,8.07
2023-05-08T13:54:58.377Z,8.82
2023-05-08T13:56:01.005Z,8.10
2023-05-08T13:57:02.751Z,9.45
2023-05-08T13:58:04.364Z,9.43
2023-05-08T13:59:05.923Z,11.98
2023-05-08T14:00:09.401Z,8.32
2023-05-08T14:01:25.992Z,8.98
2023-05-08T14:02:29.018Z,9.45
2023-05-08T14:03:31.188Z,8.45
2023-05-08T14:04:32.899Z,9.80
2023-05-08T14:05:35.049Z,9.82
2023-05-08T14:06:36.680Z,9.88
2023-05-08T14:07:38.521Z,9.18
2023-05-08T14:08:45.240Z,9.93
2023-05-08T14:09:48.348Z,10.13
2023-05-08T14:10:49.912Z,9.07
2023-05-08T14:11:51.581Z,8.50
2023-05-08T14:12:53.229Z,10.00
2023-05-08T14:13:55.236Z,9.48
2023-05-08T14:14:56.899Z,10.65
2023-05-08T14:15:58.576Z,8.70
2023-05-08T14:17:00.163Z,9.63
2023-05-08T14:18:01.760Z,8.50
2023-05-08T14:19:03.463Z,10.32
2023-05-08T14:20:05.655Z,11.32
2023-05-08T14:21:07.382Z,9.55
2023-05-08T14:22:09.058Z,9.70
2023-05-08T14:23:10.683Z,8.32
2023-05-08T14:24:12.249Z,8.60